sensor_id;sensor_type;location;lat;lon;timestamp;P1;durP1;ratioP1;P2;durP2;ratioP2
13421;SDS011;6782;55.904;13.396;2022-10-16T00:02:26;39.08;;;30.00;;
13421;SDS011;6782;55.904;13.396;2022-10-16T00:05:13;36.90;;;29.70;;
13421;SDS011;6782;55.904;13.396;2022-10-16T00:08:01;35.30;;;29.52;;
13421;SDS011;6782;55.904;13.396;2022-10-16T00:10:48;40.75;;;30.30;;
13421;SDS011;6782;55.904;13.396;2022-10-16T00:13:36;44.95;;;31.80;;
13421;SDS011;6782;55.904;13.396;2022-10-16T00:16:24;37.08;;;29.25;;
13421;SDS011;6782;55.904;13.396;2022-10-16T00:19:13;41.38;;;30.13;;
13421;SDS011;6782;55.904;13.396;2022-10-16T00:22:00;38.83;;;29.50;;
13421;SDS011;6782;55.904;13.396;2022-10-16T00:24:47;39.13;;;30.67;;
13421;SDS011;6782;55.904;13.396;2022-10-16T00:27:34;41.72;;;28.80;;
13421;SDS011;6782;55.904;13.396;2022-10-16T00:30:22;38.33;;;30.60;;
13421;SDS011;6782;55.904;13.396;2022-10-16T00:33:09;41.85;;;30.90;;
13421;SDS011;6782;55.904;13.396;2022-10-16T00:35:58;44.22;;;31.27;;
13421;SDS011;6782;55.904;13.396;2022-10-16T00:38:46;40.72;;;31.33;;
13421;SDS011;6782;55.904;13.396;2022-10-16T00:41:38;44.35;;;32.05;;
13421;SDS011;6782;55.904;13.396;2022-10-16T00:44:47;43.73;;;31.30;;
13421;SDS011;6782;55.904;13.396;2022-10-16T00:47:39;45.28;;;32.20;;
13421;SDS011;6782;55.904;13.396;2022-10-16T00:50:30;40.43;;;30.90;;
13421;SDS011;6782;55.904;13.396;2022-10-16T00:53:21;38.22;;;29.92;;
13421;SDS011;6782;55.904;13.396;2022-10-16T00:56:09;42.85;;;31.10;;
13421;SDS011;6782;55.904;13.396;2022-10-16T00:58:56;36.58;;;28.38;;
13421;SDS011;6782;55.904;13.396;2022-10-16T01:01:45;37.53;;;29.10;;
13421;SDS011;6782;55.904;13.396;2022-10-16T01:04:34;39.08;;;29.88;;
13421;SDS011;6782;55.904;13.396;2022-10-16T01:07:26;41.83;;;29.97;;
13421;SDS011;6782;55.904;13.396;2022-10-16T01:10:25;41.60;;;31.77;;
13421;SDS011;6782;55.904;13.396;2022-10-16T01:13:18;43.03;;;31.13;;
13421;SDS011;6782;55.904;13.396;2022-10-16T01:16:12;38.87;;;28.83;;
13421;SDS011;6782;55.904;13.396;2022-10-16T01:19:05;43.60;;;30.57;;
13421;SDS011;6782;55.904;13.396;2022-10-16T01:21:59;43.50;;;31.60;;
13421;SDS011;6782;55.904;13.396;2022-10-16T01:24:48;48.20;;;31.17;;
13421;SDS011;6782;55.904;13.396;2022-10-16T01:27:38;42.58;;;29.73;;
13421;SDS011;6782;55.904;13.396;2022-10-16T01:30:30;42.92;;;30.02;;
13421;SDS011;6782;55.904;13.396;2022-10-16T01:33:21;47.13;;;31.27;;
13421;SDS011;6782;55.904;13.396;2022-10-16T01:36:13;41.22;;;28.67;;
13421;SDS011;6782;55.904;13.396;2022-10-16T01:39:03;44.27;;;30.00;;
13421;SDS011;6782;55.904;13.396;2022-10-16T01:41:57;44.17;;;28.80;;
13421;SDS011;6782;55.904;13.396;2022-10-16T01:44:52;40.00;;;27.67;;
13421;SDS011;6782;55.904;13.396;2022-10-16T01:47:42;47.93;;;30.27;;
13421;SDS011;6782;55.904;13.396;2022-10-16T01:50:31;45.70;;;29.03;;
13421;SDS011;6782;55.904;13.396;2022-10-16T01:53:21;43.67;;;28.87;;
13421;SDS011;6782;55.904;13.396;2022-10-16T01:56:12;42.45;;;29.35;;
13421;SDS011;6782;55.904;13.396;2022-10-16T01:59:02;42.23;;;27.90;;
13421;SDS011;6782;55.904;13.396;2022-10-16T02:01:55;43.87;;;30.73;;
13421;SDS011;6782;55.904;13.396;2022-10-16T02:04:47;49.17;;;30.10;;
13421;SDS011;6782;55.904;13.396;2022-10-16T02:07:40;49.20;;;31.40;;
13421;SDS011;6782;55.904;13.396;2022-10-16T02:10:28;51.77;;;31.23;;
13421;SDS011;6782;55.904;13.396;2022-10-16T02:13:17;46.80;;;29.05;;
13421;SDS011;6782;55.904;13.396;2022-10-16T02:16:09;55.17;;;30.60;;
13421;SDS011;6782;55.904;13.396;2022-10-16T02:18:59;40.47;;;27.93;;
13421;SDS011;6782;55.904;13.396;2022-10-16T02:21:48;50.00;;;30.80;;
13421;SDS011;6782;55.904;13.396;2022-10-16T02:24:39;53.93;;;29.47;;
13421;SDS011;6782;55.904;13.396;2022-10-16T02:27:34;53.07;;;30.60;;
13421;SDS011;6782;55.904;13.396;2022-10-16T02:30:28;47.57;;;28.53;;
13421;SDS011;6782;55.904;13.396;2022-10-16T02:33:20;51.10;;;30.23;;
13421;SDS011;6782;55.904;13.396;2022-10-16T02:36:11;45.00;;;27.87;;
13421;SDS011;6782;55.904;13.396;2022-10-16T02:38:58;48.97;;;29.67;;
13421;SDS011;6782;55.904;13.396;2022-10-16T02:41:47;54.00;;;31.30;;
13421;SDS011;6782;55.904;13.396;2022-10-16T02:44:34;49.20;;;29.87;;
13421;SDS011;6782;55.904;13.396;2022-10-16T02:47:21;48.67;;;29.93;;
13421;SDS011;6782;55.904;13.396;2022-10-16T02:50:09;45.23;;;27.67;;
13421;SDS011;6782;55.904;13.396;2022-10-16T02:52:57;41.73;;;26.57;;
13421;SDS011;6782;55.904;13.396;2022-10-16T02:55:45;37.50;;;25.47;;
13421;SDS011;6782;55.904;13.396;2022-10-16T02:58:32;56.97;;;28.63;;
13421;SDS011;6782;55.904;13.396;2022-10-16T03:01:19;45.40;;;27.07;;
13421;SDS011;6782;55.904;13.396;2022-10-16T03:04:07;38.50;;;25.67;;
13421;SDS011;6782;55.904;13.396;2022-10-16T03:06:54;52.10;;;28.87;;
13421;SDS011;6782;55.904;13.396;2022-10-16T03:09:42;40.93;;;25.73;;
13421;SDS011;6782;55.904;13.396;2022-10-16T03:12:30;46.23;;;27.70;;
13421;SDS011;6782;55.904;13.396;2022-10-16T03:15:17;51.07;;;28.60;;
13421;SDS011;6782;55.904;13.396;2022-10-16T03:18:04;42.93;;;26.83;;
13421;SDS011;6782;55.904;13.396;2022-10-16T03:20:51;46.57;;;27.00;;
13421;SDS011;6782;55.904;13.396;2022-10-16T03:23:39;50.50;;;28.17;;
13421;SDS011;6782;55.904;13.396;2022-10-16T03:26:27;40.43;;;23.60;;
13421;SDS011;6782;55.904;13.396;2022-10-16T03:29:15;42.13;;;24.53;;
13421;SDS011;6782;55.904;13.396;2022-10-16T03:32:02;37.03;;;23.40;;
13421;SDS011;6782;55.904;13.396;2022-10-16T03:34:49;39.60;;;24.87;;
13421;SDS011;6782;55.904;13.396;2022-10-16T03:37:38;47.50;;;25.67;;
13421;SDS011;6782;55.904;13.396;2022-10-16T03:40:25;36.60;;;23.63;;
13421;SDS011;6782;55.904;13.396;2022-10-16T03:43:15;44.03;;;25.27;;
13421;SDS011;6782;55.904;13.396;2022-10-16T03:46:02;48.47;;;26.37;;
13421;SDS011;6782;55.904;13.396;2022-10-16T03:48:50;51.93;;;29.40;;
13421;SDS011;6782;55.904;13.396;2022-10-16T03:51:37;51.03;;;25.87;;
13421;SDS011;6782;55.904;13.396;2022-10-16T03:54:24;47.77;;;26.07;;
13421;SDS011;6782;55.904;13.396;2022-10-16T03:57:11;49.37;;;26.73;;
13421;SDS011;6782;55.904;13.396;2022-10-16T04:00:00;36.73;;;24.03;;
13421;SDS011;6782;55.904;13.396;2022-10-16T04:02:47;44.07;;;25.80;;
13421;SDS011;6782;55.904;13.396;2022-10-16T04:05:34;63.87;;;31.40;;
13421;SDS011;6782;55.904;13.396;2022-10-16T04:08:21;50.53;;;29.13;;
13421;SDS011;6782;55.904;13.396;2022-10-16T04:11:09;54.77;;;31.13;;
13421;SDS011;6782;55.904;13.396;2022-10-16T04:13:56;45.27;;;28.03;;
13421;SDS011;6782;55.904;13.396;2022-10-16T04:16:45;49.10;;;30.90;;
13421;SDS011;6782;55.904;13.396;2022-10-16T04:19:32;47.23;;;29.57;;
13421;SDS011;6782;55.904;13.396;2022-10-16T04:22:19;50.70;;;30.23;;
13421;SDS011;6782;55.904;13.396;2022-10-16T04:25:06;51.63;;;31.03;;
13421;SDS011;6782;55.904;13.396;2022-10-16T04:27:54;50.00;;;29.83;;
13421;SDS011;6782;55.904;13.396;2022-10-16T04:30:42;47.80;;;28.80;;
13421;SDS011;6782;55.904;13.396;2022-10-16T04:33:31;43.87;;;27.00;;
13421;SDS011;6782;55.904;13.396;2022-10-16T04:36:19;57.67;;;29.67;;
13421;SDS011;6782;55.904;13.396;2022-10-16T04:39:06;42.10;;;25.93;;
13421;SDS011;6782;55.904;13.396;2022-10-16T04:41:53;51.77;;;28.63;;
13421;SDS011;6782;55.904;13.396;2022-10-16T04:44:41;51.33;;;28.80;;
13421;SDS011;6782;55.904;13.396;2022-10-16T04:47:29;43.10;;;26.53;;
13421;SDS011;6782;55.904;13.396;2022-10-16T04:50:18;46.40;;;27.67;;
13421;SDS011;6782;55.904;13.396;2022-10-16T04:53:06;48.13;;;27.77;;
13421;SDS011;6782;55.904;13.396;2022-10-16T04:55:54;51.93;;;29.43;;
13421;SDS011;6782;55.904;13.396;2022-10-16T04:58:42;62.67;;;32.83;;
13421;SDS011;6782;55.904;13.396;2022-10-16T05:01:30;41.37;;;25.57;;
13421;SDS011;6782;55.904;13.396;2022-10-16T05:04:17;44.13;;;25.70;;
13421;SDS011;6782;55.904;13.396;2022-10-16T05:07:06;36.97;;;24.63;;
13421;SDS011;6782;55.904;13.396;2022-10-16T05:09:54;40.80;;;25.27;;
13421;SDS011;6782;55.904;13.396;2022-10-16T05:12:41;44.67;;;25.17;;
13421;SDS011;6782;55.904;13.396;2022-10-16T05:15:28;39.17;;;24.63;;
13421;SDS011;6782;55.904;13.396;2022-10-16T05:18:16;37.07;;;21.10;;
13421;SDS011;6782;55.904;13.396;2022-10-16T05:21:04;35.60;;;23.30;;
13421;SDS011;6782;55.904;13.396;2022-10-16T05:23:54;40.67;;;23.27;;
13421;SDS011;6782;55.904;13.396;2022-10-16T05:26:42;41.90;;;23.30;;
13421;SDS011;6782;55.904;13.396;2022-10-16T05:29:29;35.10;;;22.03;;
13421;SDS011;6782;55.904;13.396;2022-10-16T05:32:17;34.97;;;22.13;;
13421;SDS011;6782;55.904;13.396;2022-10-16T05:35:06;35.37;;;21.97;;
13421;SDS011;6782;55.904;13.396;2022-10-16T05:37:54;42.33;;;23.47;;
13421;SDS011;6782;55.904;13.396;2022-10-16T05:40:43;38.03;;;23.27;;
13421;SDS011;6782;55.904;13.396;2022-10-16T05:43:37;27.50;;;19.90;;
13421;SDS011;6782;55.904;13.396;2022-10-16T05:46:24;31.60;;;19.23;;
13421;SDS011;6782;55.904;13.396;2022-10-16T05:49:11;26.80;;;20.27;;
13421;SDS011;6782;55.904;13.396;2022-10-16T05:51:58;30.87;;;18.83;;
13421;SDS011;6782;55.904;13.396;2022-10-16T05:54:46;33.07;;;21.67;;
13421;SDS011;6782;55.904;13.396;2022-10-16T05:57:34;32.87;;;20.90;;
13421;SDS011;6782;55.904;13.396;2022-10-16T06:00:21;34.30;;;21.03;;
13421;SDS011;6782;55.904;13.396;2022-10-16T06:03:09;25.30;;;17.33;;
13421;SDS011;6782;55.904;13.396;2022-10-16T06:05:56;23.17;;;18.37;;
13421;SDS011;6782;55.904;13.396;2022-10-16T06:08:43;30.43;;;19.03;;
13421;SDS011;6782;55.904;13.396;2022-10-16T06:11:32;28.53;;;17.40;;
13421;SDS011;6782;55.904;13.396;2022-10-16T06:14:21;24.23;;;16.80;;
13421;SDS011;6782;55.904;13.396;2022-10-16T06:17:08;21.83;;;15.13;;
13421;SDS011;6782;55.904;13.396;2022-10-16T06:19:55;23.30;;;17.20;;
13421;SDS011;6782;55.904;13.396;2022-10-16T06:22:42;26.60;;;17.17;;
13421;SDS011;6782;55.904;13.396;2022-10-16T06:25:31;22.57;;;15.40;;
13421;SDS011;6782;55.904;13.396;2022-10-16T06:28:18;22.25;;;15.35;;
13421;SDS011;6782;55.904;13.396;2022-10-16T06:31:08;22.57;;;15.37;;
13421;SDS011;6782;55.904;13.396;2022-10-16T06:33:56;21.07;;;16.07;;
13421;SDS011;6782;55.904;13.396;2022-10-16T06:36:44;24.93;;;15.27;;
13421;SDS011;6782;55.904;13.396;2022-10-16T06:39:31;25.43;;;15.47;;
13421;SDS011;6782;55.904;13.396;2022-10-16T06:42:18;27.97;;;16.60;;
13421;SDS011;6782;55.904;13.396;2022-10-16T06:45:06;20.87;;;15.73;;
13421;SDS011;6782;55.904;13.396;2022-10-16T06:47:55;21.47;;;15.07;;
13421;SDS011;6782;55.904;13.396;2022-10-16T06:50:42;23.97;;;15.50;;
13421;SDS011;6782;55.904;13.396;2022-10-16T06:53:30;24.30;;;14.30;;
13421;SDS011;6782;55.904;13.396;2022-10-16T06:56:19;18.80;;;13.40;;
13421;SDS011;6782;55.904;13.396;2022-10-16T06:59:08;22.53;;;13.93;;
13421;SDS011;6782;55.904;13.396;2022-10-16T07:01:55;18.40;;;12.57;;
13421;SDS011;6782;55.904;13.396;2022-10-16T07:04:44;20.37;;;12.83;;
13421;SDS011;6782;55.904;13.396;2022-10-16T07:07:31;15.77;;;11.20;;
13421;SDS011;6782;55.904;13.396;2022-10-16T07:10:18;19.17;;;11.43;;
13421;SDS011;6782;55.904;13.396;2022-10-16T07:13:09;16.53;;;10.87;;
13421;SDS011;6782;55.904;13.396;2022-10-16T07:15:58;15.93;;;10.97;;
13421;SDS011;6782;55.904;13.396;2022-10-16T07:18:51;14.50;;;10.70;;
13421;SDS011;6782;55.904;13.396;2022-10-16T07:21:44;16.50;;;10.93;;
13421;SDS011;6782;55.904;13.396;2022-10-16T07:24:31;16.97;;;10.23;;
13421;SDS011;6782;55.904;13.396;2022-10-16T07:27:19;14.73;;;9.37;;
13421;SDS011;6782;55.904;13.396;2022-10-16T07:30:08;15.53;;;10.07;;
13421;SDS011;6782;55.904;13.396;2022-10-16T07:32:56;15.50;;;9.50;;
13421;SDS011;6782;55.904;13.396;2022-10-16T07:35:49;17.07;;;10.80;;
13421;SDS011;6782;55.904;13.396;2022-10-16T07:38:39;12.50;;;9.90;;
13421;SDS011;6782;55.904;13.396;2022-10-16T07:41:27;18.13;;;9.97;;
13421;SDS011;6782;55.904;13.396;2022-10-16T07:44:15;13.17;;;10.17;;
13421;SDS011;6782;55.904;13.396;2022-10-16T07:47:02;12.50;;;8.90;;
13421;SDS011;6782;55.904;13.396;2022-10-16T07:49:50;14.18;;;10.45;;
13421;SDS011;6782;55.904;13.396;2022-10-16T07:52:37;12.47;;;8.83;;
13421;SDS011;6782;55.904;13.396;2022-10-16T07:55:26;14.55;;;10.07;;
13421;SDS011;6782;55.904;13.396;2022-10-16T07:58:13;15.23;;;9.23;;
13421;SDS011;6782;55.904;13.396;2022-10-16T08:01:02;14.55;;;8.80;;
13421;SDS011;6782;55.904;13.396;2022-10-16T08:03:50;11.10;;;8.80;;
13421;SDS011;6782;55.904;13.396;2022-10-16T08:06:39;14.32;;;8.02;;
13421;SDS011;6782;55.904;13.396;2022-10-16T08:09:27;13.80;;;7.07;;
13421;SDS011;6782;55.904;13.396;2022-10-16T08:12:15;10.07;;;6.33;;
13421;SDS011;6782;55.904;13.396;2022-10-16T08:15:03;10.70;;;5.87;;
13421;SDS011;6782;55.904;13.396;2022-10-16T08:17:55;10.07;;;5.20;;
13421;SDS011;6782;55.904;13.396;2022-10-16T08:20:46;9.32;;;5.13;;
13421;SDS011;6782;55.904;13.396;2022-10-16T08:23:33;5.93;;;4.30;;
13421;SDS011;6782;55.904;13.396;2022-10-16T08:26:21;8.47;;;4.90;;
13421;SDS011;6782;55.904;13.396;2022-10-16T08:29:09;7.50;;;4.53;;
13421;SDS011;6782;55.904;13.396;2022-10-16T08:31:56;10.82;;;4.97;;
13421;SDS011;6782;55.904;13.396;2022-10-16T08:34:44;7.38;;;3.97;;
13421;SDS011;6782;55.904;13.396;2022-10-16T08:37:31;8.33;;;4.30;;
13421;SDS011;6782;55.904;13.396;2022-10-16T08:40:20;8.02;;;4.22;;
13421;SDS011;6782;55.904;13.396;2022-10-16T08:43:29;6.15;;;4.47;;
13421;SDS011;6782;55.904;13.396;2022-10-16T08:46:33;8.52;;;4.15;;
13421;SDS011;6782;55.904;13.396;2022-10-16T08:49:32;7.18;;;3.90;;
13421;SDS011;6782;55.904;13.396;2022-10-16T08:52:19;9.18;;;4.15;;
13421;SDS011;6782;55.904;13.396;2022-10-16T08:55:08;7.18;;;3.45;;
13421;SDS011;6782;55.904;13.396;2022-10-16T08:58:13;7.00;;;3.60;;
13421;SDS011;6782;55.904;13.396;2022-10-16T09:01:03;10.07;;;3.88;;
13421;SDS011;6782;55.904;13.396;2022-10-16T09:04:06;6.85;;;3.25;;
13421;SDS011;6782;55.904;13.396;2022-10-16T09:07:11;7.72;;;3.50;;
13421;SDS011;6782;55.904;13.396;2022-10-16T09:10:13;9.65;;;3.85;;
13421;SDS011;6782;55.904;13.396;2022-10-16T09:13:12;7.85;;;3.50;;
13421;SDS011;6782;55.904;13.396;2022-10-16T09:16:11;10.10;;;3.17;;
13421;SDS011;6782;55.904;13.396;2022-10-16T09:19:12;11.02;;;3.42;;
13421;SDS011;6782;55.904;13.396;2022-10-16T09:22:09;5.70;;;3.10;;
13421;SDS011;6782;55.904;13.396;2022-10-16T09:25:00;7.20;;;3.00;;
13421;SDS011;6782;55.904;13.396;2022-10-16T09:27:57;8.05;;;3.00;;
13421;SDS011;6782;55.904;13.396;2022-10-16T09:30:46;5.72;;;3.10;;
13421;SDS011;6782;55.904;13.396;2022-10-16T09:33:36;4.93;;;2.63;;
13421;SDS011;6782;55.904;13.396;2022-10-16T09:36:28;5.75;;;2.60;;
13421;SDS011;6782;55.904;13.396;2022-10-16T09:39:19;6.57;;;2.60;;
13421;SDS011;6782;55.904;13.396;2022-10-16T09:42:07;7.93;;;2.92;;
13421;SDS011;6782;55.904;13.396;2022-10-16T09:44:57;8.05;;;2.67;;
13421;SDS011;6782;55.904;13.396;2022-10-16T09:47:45;6.13;;;2.47;;
13421;SDS011;6782;55.904;13.396;2022-10-16T09:50:33;5.05;;;2.30;;
13421;SDS011;6782;55.904;13.396;2022-10-16T09:53:22;5.43;;;2.53;;
13421;SDS011;6782;55.904;13.396;2022-10-16T09:56:11;4.82;;;2.50;;
13421;SDS011;6782;55.904;13.396;2022-10-16T09:59:08;5.97;;;2.42;;
13421;SDS011;6782;55.904;13.396;2022-10-16T10:02:01;4.13;;;2.50;;
13421;SDS011;6782;55.904;13.396;2022-10-16T10:04:51;7.07;;;2.72;;
13421;SDS011;6782;55.904;13.396;2022-10-16T10:07:42;5.03;;;2.58;;
13421;SDS011;6782;55.904;13.396;2022-10-16T10:10:34;7.32;;;2.58;;
13421;SDS011;6782;55.904;13.396;2022-10-16T10:13:28;3.38;;;2.08;;
13421;SDS011;6782;55.904;13.396;2022-10-16T10:16:23;6.93;;;2.17;;
13421;SDS011;6782;55.904;13.396;2022-10-16T10:19:13;5.05;;;2.08;;
13421;SDS011;6782;55.904;13.396;2022-10-16T10:22:11;5.68;;;2.20;;
13421;SDS011;6782;55.904;13.396;2022-10-16T10:25:14;4.15;;;1.85;;
13421;SDS011;6782;55.904;13.396;2022-10-16T10:28:14;5.10;;;1.90;;
13421;SDS011;6782;55.904;13.396;2022-10-16T10:31:09;8.40;;;1.90;;
13421;SDS011;6782;55.904;13.396;2022-10-16T10:34:16;3.83;;;1.80;;
13421;SDS011;6782;55.904;13.396;2022-10-16T10:37:17;4.13;;;1.80;;
13421;SDS011;6782;55.904;13.396;2022-10-16T10:40:22;3.75;;;1.52;;
13421;SDS011;6782;55.904;13.396;2022-10-16T10:43:22;6.78;;;1.58;;
13421;SDS011;6782;55.904;13.396;2022-10-16T10:46:24;5.25;;;1.73;;
13421;SDS011;6782;55.904;13.396;2022-10-16T10:49:28;3.67;;;1.52;;
13421;SDS011;6782;55.904;13.396;2022-10-16T10:55:33;3.67;;;1.73;;
13421;SDS011;6782;55.904;13.396;2022-10-16T10:58:35;6.28;;;1.80;;
13421;SDS011;6782;55.904;13.396;2022-10-16T11:01:37;4.10;;;1.60;;
13421;SDS011;6782;55.904;13.396;2022-10-16T11:04:39;3.65;;;1.80;;
13421;SDS011;6782;55.904;13.396;2022-10-16T11:07:45;3.83;;;1.75;;
13421;SDS011;6782;55.904;13.396;2022-10-16T11:10:39;6.63;;;2.03;;
13421;SDS011;6782;55.904;13.396;2022-10-16T11:13:34;6.00;;;1.60;;
13421;SDS011;6782;55.904;13.396;2022-10-16T11:16:27;6.03;;;2.22;;
13421;SDS011;6782;55.904;13.396;2022-10-16T11:19:19;3.92;;;1.98;;
13421;SDS011;6782;55.904;13.396;2022-10-16T11:22:16;5.95;;;2.05;;
13421;SDS011;6782;55.904;13.396;2022-10-16T11:25:11;4.63;;;1.88;;
13421;SDS011;6782;55.904;13.396;2022-10-16T11:28:03;3.88;;;1.83;;
13421;SDS011;6782;55.904;13.396;2022-10-16T11:30:59;6.18;;;1.90;;
13421;SDS011;6782;55.904;13.396;2022-10-16T11:33:54;4.85;;;1.90;;
13421;SDS011;6782;55.904;13.396;2022-10-16T11:36:49;4.93;;;2.00;;
13421;SDS011;6782;55.904;13.396;2022-10-16T11:39:40;4.85;;;2.10;;
13421;SDS011;6782;55.904;13.396;2022-10-16T11:42:32;4.78;;;1.77;;
13421;SDS011;6782;55.904;13.396;2022-10-16T11:45:26;6.35;;;1.85;;
13421;SDS011;6782;55.904;13.396;2022-10-16T11:48:25;3.72;;;1.67;;
13421;SDS011;6782;55.904;13.396;2022-10-16T11:51:19;5.57;;;2.03;;
13421;SDS011;6782;55.904;13.396;2022-10-16T11:54:14;6.60;;;2.10;;
13421;SDS011;6782;55.904;13.396;2022-10-16T11:57:09;6.18;;;2.15;;
13421;SDS011;6782;55.904;13.396;2022-10-16T12:00:04;8.30;;;2.17;;
13421;SDS011;6782;55.904;13.396;2022-10-16T12:02:58;5.45;;;1.67;;
13421;SDS011;6782;55.904;13.396;2022-10-16T12:06:01;5.32;;;1.90;;
13421;SDS011;6782;55.904;13.396;2022-10-16T12:08:58;5.40;;;1.60;;
13421;SDS011;6782;55.904;13.396;2022-10-16T12:11:46;4.80;;;2.00;;
13421;SDS011;6782;55.904;13.396;2022-10-16T12:14:36;5.75;;;1.95;;
13421;SDS011;6782;55.904;13.396;2022-10-16T12:17:26;5.13;;;1.80;;
13421;SDS011;6782;55.904;13.396;2022-10-16T12:20:25;5.43;;;2.28;;
13421;SDS011;6782;55.904;13.396;2022-10-16T12:23:19;4.63;;;1.67;;
13421;SDS011;6782;55.904;13.396;2022-10-16T12:26:09;4.93;;;1.77;;
13421;SDS011;6782;55.904;13.396;2022-10-16T12:29:09;5.50;;;1.52;;
13421;SDS011;6782;55.904;13.396;2022-10-16T12:32:00;6.38;;;1.95;;
13421;SDS011;6782;55.904;13.396;2022-10-16T12:34:48;5.28;;;1.70;;
13421;SDS011;6782;55.904;13.396;2022-10-16T12:37:36;4.13;;;1.67;;
13421;SDS011;6782;55.904;13.396;2022-10-16T12:40:27;6.38;;;2.00;;
13421;SDS011;6782;55.904;13.396;2022-10-16T12:43:27;5.20;;;1.95;;
13421;SDS011;6782;55.904;13.396;2022-10-16T12:46:35;4.47;;;1.75;;
13421;SDS011;6782;55.904;13.396;2022-10-16T12:49:32;3.97;;;1.70;;
13421;SDS011;6782;55.904;13.396;2022-10-16T12:52:26;7.55;;;2.05;;
13421;SDS011;6782;55.904;13.396;2022-10-16T12:55:16;5.57;;;1.77;;
13421;SDS011;6782;55.904;13.396;2022-10-16T12:58:18;4.05;;;1.70;;
13421;SDS011;6782;55.904;13.396;2022-10-16T13:01:25;6.35;;;2.00;;
13421;SDS011;6782;55.904;13.396;2022-10-16T13:04:23;6.05;;;1.83;;
13421;SDS011;6782;55.904;13.396;2022-10-16T13:07:28;6.32;;;1.90;;
13421;SDS011;6782;55.904;13.396;2022-10-16T13:10:28;6.85;;;2.50;;
13421;SDS011;6782;55.904;13.396;2022-10-16T13:16:48;5.15;;;1.95;;
13421;SDS011;6782;55.904;13.396;2022-10-16T13:19:42;5.80;;;1.75;;
13421;SDS011;6782;55.904;13.396;2022-10-16T13:22:35;5.93;;;2.15;;
13421;SDS011;6782;55.904;13.396;2022-10-16T13:25:31;6.57;;;2.10;;
13421;SDS011;6782;55.904;13.396;2022-10-16T13:28:29;8.85;;;2.22;;
13421;SDS011;6782;55.904;13.396;2022-10-16T13:31:20;6.25;;;2.05;;
13421;SDS011;6782;55.904;13.396;2022-10-16T13:34:12;5.82;;;2.42;;
13421;SDS011;6782;55.904;13.396;2022-10-16T13:37:15;8.93;;;2.50;;
13421;SDS011;6782;55.904;13.396;2022-10-16T13:40:09;7.15;;;2.22;;
13421;SDS011;6782;55.904;13.396;2022-10-16T13:43:07;9.18;;;3.03;;
13421;SDS011;6782;55.904;13.396;2022-10-16T13:45:56;6.82;;;2.50;;
13421;SDS011;6782;55.904;13.396;2022-10-16T13:48:55;5.47;;;2.20;;
13421;SDS011;6782;55.904;13.396;2022-10-16T13:51:54;5.68;;;2.10;;
13421;SDS011;6782;55.904;13.396;2022-10-16T13:54:42;5.35;;;1.67;;
13421;SDS011;6782;55.904;13.396;2022-10-16T13:57:30;8.18;;;2.38;;
13421;SDS011;6782;55.904;13.396;2022-10-16T14:00:18;6.80;;;2.22;;
13421;SDS011;6782;55.904;13.396;2022-10-16T14:03:06;6.22;;;2.38;;
13421;SDS011;6782;55.904;13.396;2022-10-16T14:06:00;7.57;;;2.30;;
13421;SDS011;6782;55.904;13.396;2022-10-16T14:08:51;10.77;;;2.78;;
13421;SDS011;6782;55.904;13.396;2022-10-16T14:11:48;7.68;;;2.60;;
13421;SDS011;6782;55.904;13.396;2022-10-16T14:14:40;6.30;;;1.80;;
13421;SDS011;6782;55.904;13.396;2022-10-16T14:17:28;5.57;;;1.75;;
13421;SDS011;6782;55.904;13.396;2022-10-16T14:20:18;7.50;;;2.17;;
13421;SDS011;6782;55.904;13.396;2022-10-16T14:23:18;3.30;;;1.67;;
13421;SDS011;6782;55.904;13.396;2022-10-16T14:26:25;10.30;;;2.00;;
13421;SDS011;6782;55.904;13.396;2022-10-16T14:29:15;4.37;;;1.77;;
13421;SDS011;6782;55.904;13.396;2022-10-16T14:32:20;3.73;;;1.50;;
13421;SDS011;6782;55.904;13.396;2022-10-16T14:35:21;7.60;;;1.97;;
13421;SDS011;6782;55.904;13.396;2022-10-16T14:38:19;6.63;;;2.23;;
13421;SDS011;6782;55.904;13.396;2022-10-16T14:41:07;8.60;;;2.43;;
13421;SDS011;6782;55.904;13.396;2022-10-16T14:44:01;7.47;;;2.30;;
13421;SDS011;6782;55.904;13.396;2022-10-16T14:46:51;6.63;;;2.30;;
13421;SDS011;6782;55.904;13.396;2022-10-16T14:49:38;14.17;;;2.80;;
13421;SDS011;6782;55.904;13.396;2022-10-16T14:52:29;12.25;;;2.40;;
13421;SDS011;6782;55.904;13.396;2022-10-16T14:55:16;10.13;;;2.25;;
13421;SDS011;6782;55.904;13.396;2022-10-16T14:58:04;8.33;;;2.40;;
13421;SDS011;6782;55.904;13.396;2022-10-16T15:00:55;9.00;;;2.90;;
13421;SDS011;6782;55.904;13.396;2022-10-16T15:03:43;11.57;;;3.10;;
13421;SDS011;6782;55.904;13.396;2022-10-16T15:06:30;8.60;;;2.47;;
13421;SDS011;6782;55.904;13.396;2022-10-16T15:09:18;12.70;;;2.85;;
13421;SDS011;6782;55.904;13.396;2022-10-16T15:12:06;10.73;;;3.07;;
13421;SDS011;6782;55.904;13.396;2022-10-16T15:14:53;9.80;;;2.67;;
13421;SDS011;6782;55.904;13.396;2022-10-16T15:17:43;9.70;;;2.77;;
13421;SDS011;6782;55.904;13.396;2022-10-16T15:20:31;6.25;;;2.40;;
13421;SDS011;6782;55.904;13.396;2022-10-16T15:23:21;12.98;;;2.65;;
13421;SDS011;6782;55.904;13.396;2022-10-16T15:26:09;8.43;;;2.70;;
13421;SDS011;6782;55.904;13.396;2022-10-16T15:28:56;11.02;;;3.28;;
13421;SDS011;6782;55.904;13.396;2022-10-16T15:31:45;12.87;;;3.30;;
13421;SDS011;6782;55.904;13.396;2022-10-16T15:34:34;9.52;;;2.83;;
13421;SDS011;6782;55.904;13.396;2022-10-16T15:37:22;8.40;;;2.60;;
13421;SDS011;6782;55.904;13.396;2022-10-16T15:40:10;8.35;;;2.60;;
13421;SDS011;6782;55.904;13.396;2022-10-16T15:42:57;12.95;;;2.50;;
13421;SDS011;6782;55.904;13.396;2022-10-16T15:45:46;10.97;;;3.07;;
13421;SDS011;6782;55.904;13.396;2022-10-16T15:48:46;9.40;;;2.80;;
13421;SDS011;6782;55.904;13.396;2022-10-16T15:51:35;10.50;;;2.70;;
13421;SDS011;6782;55.904;13.396;2022-10-16T15:54:25;11.67;;;3.00;;
13421;SDS011;6782;55.904;13.396;2022-10-16T15:57:12;10.03;;;2.77;;
13421;SDS011;6782;55.904;13.396;2022-10-16T16:00:00;11.47;;;3.63;;
13421;SDS011;6782;55.904;13.396;2022-10-16T16:02:52;9.35;;;2.72;;
13421;SDS011;6782;55.904;13.396;2022-10-16T16:05:40;11.77;;;2.90;;
13421;SDS011;6782;55.904;13.396;2022-10-16T16:08:29;8.17;;;2.50;;
13421;SDS011;6782;55.904;13.396;2022-10-16T16:11:19;10.67;;;2.73;;
13421;SDS011;6782;55.904;13.396;2022-10-16T16:14:08;10.80;;;3.07;;
13421;SDS011;6782;55.904;13.396;2022-10-16T16:16:58;11.93;;;2.83;;
13421;SDS011;6782;55.904;13.396;2022-10-16T16:19:47;11.07;;;3.40;;
13421;SDS011;6782;55.904;13.396;2022-10-16T16:22:35;12.00;;;3.40;;
13421;SDS011;6782;55.904;13.396;2022-10-16T16:25:24;11.57;;;3.30;;
13421;SDS011;6782;55.904;13.396;2022-10-16T16:28:11;11.03;;;2.80;;
13421;SDS011;6782;55.904;13.396;2022-10-16T16:30:59;9.77;;;3.60;;
13421;SDS011;6782;55.904;13.396;2022-10-16T16:33:47;11.33;;;3.03;;
13421;SDS011;6782;55.904;13.396;2022-10-16T16:36:36;12.73;;;3.30;;
13421;SDS011;6782;55.904;13.396;2022-10-16T16:39:25;13.50;;;3.60;;
13421;SDS011;6782;55.904;13.396;2022-10-16T16:42:14;14.67;;;4.30;;
13421;SDS011;6782;55.904;13.396;2022-10-16T16:45:03;11.40;;;3.93;;
13421;SDS011;6782;55.904;13.396;2022-10-16T16:47:50;16.23;;;3.70;;
13421;SDS011;6782;55.904;13.396;2022-10-16T16:50:38;13.00;;;3.73;;
13421;SDS011;6782;55.904;13.396;2022-10-16T16:53:25;14.90;;;3.53;;
13421;SDS011;6782;55.904;13.396;2022-10-16T16:56:12;12.07;;;3.60;;
13421;SDS011;6782;55.904;13.396;2022-10-16T16:59:01;14.03;;;3.40;;
13421;SDS011;6782;55.904;13.396;2022-10-16T17:01:49;12.23;;;3.60;;